Time;durP1;ratioP1;P1;durP2;ratioP2;P2;SDS_P1;SDS_P2;PMS_P1;PMS_P2;Temp;Humidity;BMP_temperature;BMP_pressure;BME280_temperature;BME280_humidity;BME280_pressure;Samples;Min_cycle;Max_cycle;Signal;HPM_P1;HPM_P2
2023/06/08 00:02:23;;;;;;;;;;;;;;;;;;5031397;28;19940;-79
2023/06/08 00:04:50;;;;;;;;;;;;;;;;;;5034013;28;19937;-79
2023/06/08 00:07:18;;;;;;;;;;;;;;;;;;5033461;28;20367;-79
2023/06/08 00:09:45;;;;;;;;;;;;;;;;;;5033708;28;19979;-79
2023/06/08 00:12:12;;;;;;;;;;;;;;;;;;5033029;28;20015;-79
2023/06/08 00:14:41;;;;;;;;;;;;;;;;;;5032840;28;22670;-78
2023/06/08 00:17:10;;;;;;;;;;;;;;;;;;5032121;28;20024;-79
2023/06/08 00:19:37;;;;;;;;;;;;;;;;;;5032326;28;19925;-79
2023/06/08 00:22:04;;;;;;;;;;;;;;;;;;5033578;28;19925;-79
2023/06/08 00:24:31;;;;;;;;;;;;;;;;;;5047311;28;19964;-80
2023/06/08 00:26:59;;;;;;;;;;;;;;;;;;5053315;28;20023;-79
2023/06/08 00:29:26;;;;;;;;;;;;;;;;;;5033667;28;20273;-79
2023/06/08 00:31:53;;;;;;;;;;;;;;;;;;5031797;28;19929;-80
2023/06/08 00:34:20;;;;;;;;;;;;;;;;;;5033014;28;19925;-79
2023/06/08 00:36:46;;;;;;;;;;;;;;;;;;5031130;28;19931;-79
2023/06/08 00:39:13;;;;;;;;;;;;;;;;;;5032627;28;20011;-80
2023/06/08 00:41:40;;;;;;;;;;;;;;;;;;5032942;28;19956;-80
2023/06/08 00:44:07;;;;;;;;;;;;;;;;;;5033271;28;19925;-79
2023/06/08 00:46:34;;;;;;;;;;;;;;;;;;5033691;28;19925;-80
2023/06/08 00:49:01;;;;;;;;;;;;;;;;;;5032268;28;20051;-79
2023/06/08 00:51:28;;;;;;;;;;;;;;;;;;5032287;28;20143;-80
2023/06/08 00:53:56;;;;;;;;;;;;;;;;;;5033152;28;20020;-80
2023/06/08 00:56:26;;;;;;;;;;;;;;;;;;5032790;28;19925;-80
2023/06/08 00:58:55;;;;;;;;;;;;;;;;;;5032887;28;19964;-80
2023/06/08 01:01:24;;;;;;;;;;;;;;;;;;5031841;28;19956;-79
2023/06/08 01:03:55;;;;;;;;;;;;;;;;;;5023257;28;19925;-80
2023/06/08 01:06:22;;;;;;;;;;;;;;;;;;5030028;28;19931;-80
2023/06/08 01:08:49;;;;;;;;;;;;;;;;;;5032533;28;20439;-76
2023/06/08 01:11:16;;;;;;;;;;;;;;;;;;5032766;28;19925;-79
2023/06/08 01:13:43;;;;;;;;;;;;;;;;;;5032081;28;20334;-79
2023/06/08 01:16:10;;;;;;;;;;;;;;;;;;5032195;28;20020;-79
2023/06/08 01:18:38;;;;;;;;;;;;;;;;;;5030269;28;20368;-78
2023/06/08 01:21:08;;;;;;;;;;;;;;;;;;5031959;28;19925;-78
2023/06/08 01:23:37;;;;;;;;;;;;;;;;;;5031643;28;20300;-77
2023/06/08 01:26:04;;;;;;;;;;;;;;;;;;5034151;28;19929;-78
2023/06/08 01:28:31;;;;;;;;;;;;;;;;;;5052477;28;19935;-78
2023/06/08 01:30:58;;;;;;;;;;;;;;;;;;5052301;28;19925;-78
2023/06/08 01:33:25;;;;;;;;;;;;;;;;;;5041960;28;20360;-79
2023/06/08 01:35:52;;;;;;;;;;;;;;;;;;5031876;28;19964;-77
2023/06/08 01:38:19;;;;;;;;;;;;;;;;;;5020725;28;19926;-77
2023/06/08 01:40:46;;;;;;;;;;;;;;;;;;5024278;28;19931;-77
2023/06/08 01:43:13;;;;;;;;;;;;;;;;;;5031935;28;20012;-77
2023/06/08 01:45:40;;;;;;;;;;;;;;;;;;5031627;28;20407;-77
2023/06/08 01:48:07;;;;;;;;;;;;;;;;;;5031406;28;19925;-78
2023/06/08 01:50:34;;;;;;;;;;;;;;;;;;5031961;28;19924;-77
2023/06/08 01:53:01;;;;;;;;;;;;;;;;;;5031682;28;19932;-78
2023/06/08 01:55:28;;;;;;;;;;;;;;;;;;5018727;28;20452;-79
2023/06/08 01:57:56;;;;;;;;;;;;;;;;;;5028524;28;20319;-78
2023/06/08 02:00:22;;;;;;;;;;;;;;;;;;5032828;28;20380;-79
2023/06/08 02:02:49;;;;;;;;;;;;;;;;;;5031097;28;20359;-79
2023/06/08 02:05:16;;;;;;;;;;;;;;;;;;5031300;28;19957;-79
2023/06/08 02:07:43;;;;;;;;;;;;;;;;;;5030208;28;20435;-78
2023/06/08 02:10:10;;;;;;;;;;;;;;;;;;5031564;28;19991;-78
2023/06/08 02:12:37;;;;;;;;;;;;;;;;;;5031187;28;19975;-78
2023/06/08 02:15:05;;;;;;;;;;;;;;;;;;5032451;28;20031;-78
2023/06/08 02:17:33;;;;;;;;;;;;;;;;;;5031849;28;19983;-78
2023/06/08 02:20:00;;;;;;;;;;;;;;;;;;5030891;28;20285;-78
2023/06/08 02:22:28;;;;;;;;;;;;;;;;;;5031684;28;19980;-78
2023/06/08 02:24:55;;;;;;;;;;;;;;;;;;5031610;28;19925;-79
2023/06/08 02:27:22;;;;;;;;;;;;;;;;;;5032051;28;20000;-78
2023/06/08 02:29:50;;;;;;;;;;;;;;;;;;5030721;28;19925;-78
2023/06/08 02:32:17;;;;;;;;;;;;;;;;;;5012420;28;19925;-74
2023/06/08 02:34:53;;;;;;;;;;;;;;;;;;5033680;28;20019;-78
2023/06/08 02:37:20;;;;;;;;;;;;;;;;;;5035609;28;19933;-79
2023/06/08 02:39:46;;;;;;;;;;;;;;;;;;5042473;28;20015;-79
2023/06/08 02:42:14;;;;;;;;;;;;;;;;;;5054710;28;19963;-80
2023/06/08 02:44:41;;;;;;;;;;;;;;;;;;5034668;28;19925;-79
2023/06/08 02:47:08;;;;;;;;;;;;;;;;;;5017117;28;20016;-79
2023/06/08 02:49:35;;;;;;;;;;;;;;;;;;5027715;28;19926;-79
2023/06/08 02:52:02;;;;;;;;;;;;;;;;;;5034759;28;20020;-79
2023/06/08 02:54:29;;;;;;;;;;;;;;;;;;5035135;28;20462;-80
2023/06/08 02:56:56;;;;;;;;;;;;;;;;;;5035183;28;20392;-80
2023/06/08 02:59:23;;;;;;;;;;;;;;;;;;5035814;28;20360;-80
2023/06/08 03:01:53;;;;;;;;;;;;;;;;;;5037637;28;19932;-79
2023/06/08 03:04:20;;;;;;;;;;;;;;;;;;5030264;28;19931;-80
2023/06/08 03:06:53;;;;;;;;;;;;;;;;;;5035605;28;20015;-79
2023/06/08 03:09:20;;;;;;;;;;;;;;;;;;5034548;28;19932;-79
2023/06/08 03:11:47;;;;;;;;;;;;;;;;;;5034708;28;19990;-79
2023/06/08 03:14:14;;;;;;;;;;;;;;;;;;5034571;28;20455;-78
2023/06/08 03:16:42;;;;;;;;;;;;;;;;;;5034375;28;19952;-79
2023/06/08 03:19:09;;;;;;;;;;;;;;;;;;5031855;28;20033;-79
2023/06/08 03:21:36;;;;;;;;;;;;;;;;;;5034001;28;19925;-78
2023/06/08 03:24:03;;;;;;;;;;;;;;;;;;5034359;28;19925;-79
2023/06/08 03:26:30;;;;;;;;;;;;;;;;;;5034474;28;19925;-79
2023/06/08 03:28:57;;;;;;;;;;;;;;;;;;5034610;28;19925;-81
2023/06/08 03:31:24;;;;;;;;;;;;;;;;;;5034647;28;20299;-80
2023/06/08 03:33:51;;;;;;;;;;;;;;;;;;5033917;28;20024;-80
2023/06/08 03:36:19;;;;;;;;;;;;;;;;;;5034790;28;20388;-77
2023/06/08 03:38:46;;;;;;;;;;;;;;;;;;5035332;28;19932;-79
2023/06/08 03:41:14;;;;;;;;;;;;;;;;;;5034434;28;19933;-80
2023/06/08 03:43:40;;;;;;;;;;;;;;;;;;5032908;28;19933;-80
2023/06/08 03:46:08;;;;;;;;;;;;;;;;;;5033165;28;20024;-80
2023/06/08 03:48:35;;;;;;;;;;;;;;;;;;5034713;28;19972;-81
2023/06/08 03:51:02;;;;;;;;;;;;;;;;;;5033733;28;19929;-80
2023/06/08 03:53:29;;;;;;;;;;;;;;;;;;5029028;28;20024;-80
2023/06/08 03:55:56;;;;;;;;;;;;;;;;;;5013795;28;19964;-79
2023/06/08 03:58:24;;;;;;;;;;;;;;;;;;5013666;28;20028;-79
2023/06/08 04:00:50;;;;;;;;;;;;;;;;;;5019514;28;19931;-80
2023/06/08 04:03:17;;;;;;;;;;;;;;;;;;5033585;28;20019;-80
2023/06/08 04:05:44;;;;;;;;;;;;;;;;;;5030889;28;19926;-78
2023/06/08 04:08:11;;;;;;;;;;;;;;;;;;5033429;28;19925;-79
2023/06/08 04:10:38;;;;;;;;;;;;;;;;;;5030849;28;20023;-80
2023/06/08 04:13:05;;;;;;;;;;;;;;;;;;5031859;28;20004;-81
2023/06/08 04:15:32;;;;;;;;;;;;;;;;;;5032617;28;20018;-82
2023/06/08 04:18:01;;;;;;;;;;;;;;;;;;5033785;28;20016;-82
2023/06/08 04:20:29;;;;;;;;;;;;;;;;;;5033253;28;19925;-83
2023/06/08 04:22:56;;;;;;;;;;;;;;;;;;5033036;28;19936;-83
2023/06/08 04:25:25;;;;;;;;;;;;;;;;;;5033698;28;19937;-83
2023/06/08 04:27:52;;;;;;;;;;;;;;;;;;5025928;28;19925;-83
2023/06/08 04:30:19;;;;;;;;;;;;;;;;;;5013924;28;19932;-82
2023/06/08 04:32:46;;;;;;;;;;;;;;;;;;5016378;28;19996;-77
2023/06/08 04:35:13;;;;;;;;;;;;;;;;;;5032316;28;20015;-77
2023/06/08 04:37:40;;;;;;;;;;;;;;;;;;5032202;28;19972;-77
2023/06/08 04:40:07;;;;;;;;;;;;;;;;;;5032058;28;19929;-77
2023/06/08 04:42:38;;;;;;;;;;;;;;;;;;5032307;28;19931;-73
2023/06/08 04:45:07;;;;;;;;;;;;;;;;;;5023236;28;20320;-77
2023/06/08 04:47:35;;;;;;;;;;;;;;;;;;5013351;28;20332;-79
2023/06/08 04:50:02;;;;;;;;;;;;;;;;;;5026305;28;20466;-79
2023/06/08 04:52:30;;;;;;;;;;;;;;;;;;5032637;28;19932;-78
2023/06/08 04:55:00;;;;;;;;;;;;;;;;;;5032786;28;20342;-78
2023/06/08 04:57:27;;;;;;;;;;;;;;;;;;5032165;28;19926;-79
2023/06/08 04:59:54;;;;;;;;;;;;;;;;;;5032004;28;19925;-79
2023/06/08 05:02:21;;;;;;;;;;;;;;;;;;5030662;28;19925;-80
2023/06/08 05:04:49;;;;;;;;;;;;;;;;;;5031458;28;20423;-80
2023/06/08 05:07:16;;;;;;;;;;;;;;;;;;5032119;28;19925;-79
2023/06/08 05:09:43;;;;;;;;;;;;;;;;;;5036217;28;19979;-80
2023/06/08 05:12:10;;;;;;;;;;;;;;;;;;5032562;28;20431;-79
2023/06/08 05:14:37;;;;;;;;;;;;;;;;;;5032547;28;19925;-76
2023/06/08 05:17:05;;;;;;;;;;;;;;;;;;5031311;28;20573;-76
2023/06/08 05:19:32;;;;;;;;;;;;;;;;;;5023677;28;19925;-80
2023/06/08 05:21:59;;;;;;;;;;;;;;;;;;5032170;28;20015;-80
2023/06/08 05:24:26;;;;;;;;;;;;;;;;;;5030682;28;19964;-80
2023/06/08 05:26:53;;;;;;;;;;;;;;;;;;5031627;28;19968;-80
2023/06/08 05:29:19;;;;;;;;;;;;;;;;;;5031585;28;19934;-73
2023/06/08 05:31:47;;;;;;;;;;;;;;;;;;5031271;28;20023;-73
2023/06/08 05:34:15;;;;;;;;;;;;;;;;;;5030693;28;20345;-73
2023/06/08 05:36:42;;;;;;;;;;;;;;;;;;5017185;28;20071;-74
2023/06/08 05:39:08;;;;;;;;;;;;;;;;;;5027012;28;20016;-74
2023/06/08 05:41:35;;;;;;;;;;;;;;;;;;5031544;28;20041;-74
2023/06/08 05:44:02;;;;;;;;;;;;;;;;;;5031084;28;20151;-73
2023/06/08 05:46:29;;;;;;;;;;;;;;;;;;5029309;28;19932;-73
2023/06/08 05:48:56;;;;;;;;;;;;;;;;;;5030782;28;19936;-74
2023/06/08 05:51:23;;;;;;;;;;;;;;;;;;5026679;28;19987;-73
2023/06/08 05:53:50;;;;;;;;;;;;;;;;;;5026673;28;19924;-73
2023/06/08 05:56:17;;;;;;;;;;;;;;;;;;5029057;28;19999;-73
2023/06/08 05:58:44;;;;;;;;;;;;;;;;;;5031362;28;20016;-73
2023/06/08 06:01:11;;;;;;;;;;;;;;;;;;5030985;28;19925;-73
2023/06/08 06:03:38;;;;;;;;;;;;;;;;;;5030282;28;20072;-73
2023/06/08 06:06:06;;;;;;;;;;;;;;;;;;5030162;28;20012;-71
2023/06/08 06:08:32;;;;;;;;;;;;;;;;;;5031835;28;20005;-74
2023/06/08 06:10:59;;;;;;;;;;;;;;;;;;5029635;28;19971;-74
2023/06/08 06:13:27;;;;;;;;;;;;;;;;;;5032157;28;19933;-74
2023/06/08 06:15:54;;;;;;;;;;;;;;;;;;5030895;28;20001;-74
2023/06/08 06:18:21;;;;;;;;;;;;;;;;;;5032783;28;20019;-73
2023/06/08 06:20:48;;;;;;;;;;;;;;;;;;5041687;28;20007;-72
2023/06/08 06:23:15;;;;;;;;;;;;;;;;;;5032175;28;20412;-73
2023/06/08 06:25:42;;;;;;;;;;;;;;;;;;5025953;28;19953;-73
2023/06/08 06:28:09;;;;;;;;;;;;;;;;;;5021877;28;19948;-75
2023/06/08 06:30:38;;;;;;;;;;;;;;;;;;5045755;28;19970;-74
2023/06/08 06:33:05;;;;;;;;;;;;;;;;;;5033131;28;19954;-73
2023/06/08 06:35:32;;;;;;;;;;;;;;;;;;5030718;28;19925;-74
2023/06/08 06:37:59;;;;;;;;;;;;;;;;;;5033683;28;20459;-75
2023/06/08 06:40:26;;;;;;;;;;;;;;;;;;5035053;28;20352;-75
2023/06/08 06:42:53;;;;;;;;;;;;;;;;;;5037793;28;19964;-74
2023/06/08 06:45:20;;;;;;;;;;;;;;;;;;5027477;28;20020;-73
2023/06/08 06:47:47;;;;;;;;;;;;;;;;;;5030009;28;19951;-74
2023/06/08 06:50:14;;;;;;;;;;;;;;;;;;5036013;28;20464;-74
2023/06/08 06:52:41;;;;;;;;;;;;;;;;;;5033354;28;20015;-74
2023/06/08 06:55:08;;;;;;;;;;;;;;;;;;5032942;28;20004;-73
2023/06/08 06:57:37;;;;;;;;;;;;;;;;;;5030368;28;20007;-74
2023/06/08 07:00:07;;;;;;;;;;;;;;;;;;5030831;28;20008;-74
2023/06/08 07:02:37;;;;;;;;;;;;;;;;;;5029615;28;19932;-74
2023/06/08 07:05:04;;;;;;;;;;;;;;;;;;5020415;28;19925;-73
2023/06/08 07:07:31;;;;;;;;;;;;;;;;;;5032278;28;19925;-76
2023/06/08 07:09:58;;;;;;;;;;;;;;;;;;5032142;28;19925;-77
2023/06/08 07:12:25;;;;;;;;;;;;;;;;;;5037439;28;20423;-76
2023/06/08 07:14:52;;;;;;;;;;;;;;;;;;5030908;28;20007;-76
2023/06/08 07:17:19;;;;;;;;;;;;;;;;;;5036648;28;19932;-76
2023/06/08 07:19:47;;;;;;;;;;;;;;;;;;5034909;28;19972;-76
2023/06/08 07:22:14;;;;;;;;;;;;;;;;;;5033095;28;20026;-75
2023/06/08 07:24:41;;;;;;;;;;;;;;;;;;5031310;28;20381;-76
2023/06/08 07:27:08;;;;;;;;;;;;;;;;;;5032851;28;20356;-76
2023/06/08 07:29:35;;;;;;;;;;;;;;;;;;5034168;28;19925;-76
2023/06/08 07:32:02;;;;;;;;;;;;;;;;;;5030992;28;20492;-77
2023/06/08 07:34:31;;;;;;;;;;;;;;;;;;5031175;28;19936;-76
2023/06/08 07:36:58;;;;;;;;;;;;;;;;;;5032299;28;20491;-78
2023/06/08 07:39:25;;;;;;;;;;;;;;;;;;5039739;28;19951;-76
2023/06/08 07:41:52;;;;;;;;;;;;;;;;;;5036449;28;19929;-74
2023/06/08 07:44:18;;;;;;;;;;;;;;;;;;5034797;28;19932;-74
2023/06/08 07:46:45;;;;;;;;;;;;;;;;;;5046857;28;19924;-74
2023/06/08 07:49:12;;;;;;;;;;;;;;;;;;5039185;28;20451;-74
2023/06/08 07:51:39;;;;;;;;;;;;;;;;;;5036804;28;20340;-75
2023/06/08 07:54:06;;;;;;;;;;;;;;;;;;5030031;28;19929;-75
2023/06/08 07:56:33;;;;;;;;;;;;;;;;;;5031361;28;20036;-73
2023/06/08 07:59:00;;;;;;;;;;;;;;;;;;5037328;28;20414;-74
2023/06/08 08:01:27;;;;;;;;;;;;;;;;;;5033548;28;19967;-74
2023/06/08 08:03:54;;;;;;;;;;;;;;;;;;5031432;28;19976;-74
2023/06/08 08:06:21;;;;;;;;;;;;;;;;;;5032827;28;20023;-73
2023/06/08 08:08:48;;;;;;;;;;;;;;;;;;5035298;28;19929;-74
2023/06/08 08:11:15;;;;;;;;;;;;;;;;;;5050675;28;19932;-74
2023/06/08 08:13:42;;;;;;;;;;;;;;;;;;5041351;28;19968;-74
2023/06/08 08:16:09;;;;;;;;;;;;;;;;;;5029286;28;20056;-75
2023/06/08 08:18:36;;;;;;;;;;;;;;;;;;5022026;28;19968;-73
2023/06/08 08:21:03;;;;;;;;;;;;;;;;;;5053107;28;20411;-74
2023/06/08 08:23:30;;;;;;;;;;;;;;;;;;5036662;28;19975;-74
2023/06/08 08:25:57;;;;;;;;;;;;;;;;;;5024026;28;20413;-74
2023/06/08 08:28:24;;;;;;;;;;;;;;;;;;5031391;28;20020;-74
2023/06/08 08:30:51;;;;;;;;;;;;;;;;;;5029339;28;19957;-74
2023/06/08 08:33:18;;;;;;;;;;;;;;;;;;5029273;28;19971;-74
2023/06/08 08:35:45;;;;;;;;;;;;;;;;;;5032374;28;19971;-74
2023/06/08 08:38:12;;;;;;;;;;;;;;;;;;5030843;28;20396;-75
2023/06/08 08:40:39;;;;;;;;;;;;;;;;;;5029427;28;20012;-74
2023/06/08 08:43:06;;;;;;;;;;;;;;;;;;5036865;28;19932;-73
2023/06/08 08:45:34;;;;;;;;;;;;;;;;;;5033790;28;19925;-73
2023/06/08 08:48:01;;;;;;;;;;;;;;;;;;5028683;28;20015;-74
2023/06/08 08:50:28;;;;;;;;;;;;;;;;;;5031891;28;19925;-73
2023/06/08 08:52:56;;;;;;;;;;;;;;;;;;5032716;28;19944;-74
2023/06/08 08:55:27;;;;;;;;;;;;;;;;;;5027612;28;19925;-73
2023/06/08 08:57:54;;;;;;;;;;;;;;;;;;5031751;28;19925;-73
2023/06/08 09:00:21;;;;;;;;;;;;;;;;;;5027323;28;19978;-72
2023/06/08 09:02:50;;;;;;;;;;;;;;;;;;5030968;28;19925;-73
2023/06/08 09:05:17;;;;;;;;;;;;;;;;;;5034333;28;19933;-73
2023/06/08 09:07:44;;;;;;;;;;;;;;;;;;5030018;28;19928;-73
2023/06/08 09:10:11;;;;;;;;;;;;;;;;;;5027889;28;20296;-73
2023/06/08 09:12:37;;;;;;;;;;;;;;;;;;5029150;28;20311;-72
2023/06/08 09:15:05;;;;;;;;;;;;;;;;;;5027801;28;20408;-72
2023/06/08 09:17:37;;;;;;;;;;;;;;;;;;5026936;28;20439;-72
2023/06/08 09:20:07;;;;;;;;;;;;;;;;;;5025970;28;20031;-73
2023/06/08 09:22:35;;;;;;;;;;;;;;;;;;5028949;28;19925;-72
2023/06/08 09:25:03;;;;;;;;;;;;;;;;;;5031760;28;19961;-73
2023/06/08 09:27:31;;;;;;;;;;;;;;;;;;5031275;28;19925;-73
2023/06/08 09:30:00;;;;;;;;;;;;;;;;;;5043995;28;19987;-73
2023/06/08 09:32:27;;;;;;;;;;;;;;;;;;5029896;28;19924;-73
2023/06/08 09:34:55;;;;;;;;;;;;;;;;;;5021925;28;20068;-73
2023/06/08 09:37:22;;;;;;;;;;;;;;;;;;5029340;28;19932;-70
2023/06/08 09:39:49;;;;;;;;;;;;;;;;;;5032003;28;19931;-70
2023/06/08 09:42:16;;;;;;;;;;;;;;;;;;5031336;28;20442;-70
2023/06/08 09:44:43;;;;;;;;;;;;;;;;;;5018898;28;19926;-73
2023/06/08 09:47:10;;;;;;;;;;;;;;;;;;5043430;28;19992;-72
2023/06/08 09:49:37;;;;;;;;;;;;;;;;;;5033741;28;20372;-74
2023/06/08 09:52:04;;;;;;;;;;;;;;;;;;5033077;28;20288;-73
2023/06/08 09:54:33;;;;;;;;;;;;;;;;;;5035108;28;20035;-73
2023/06/08 09:57:00;;;;;;;;;;;;;;;;;;5037736;28;19983;-76
2023/06/08 09:59:27;;;;;;;;;;;;;;;;;;5035979;28;19929;-72
2023/06/08 10:01:54;;;;;;;;;;;;;;;;;;5031599;28;19979;-73
2023/06/08 10:04:21;;;;;;;;;;;;;;;;;;5037459;28;19925;-73
2023/06/08 10:06:48;;;;;;;;;;;;;;;;;;5034183;28;19987;-73
2023/06/08 10:09:15;;;;;;;;;;;;;;;;;;5033439;28;19979;-73
2023/06/08 10:11:42;;;;;;;;;;;;;;;;;;5033975;28;19925;-72
2023/06/08 10:14:11;;;;;;;;;;;;;;;;;;5037153;28;19932;-73
2023/06/08 10:16:38;;;;;;;;;;;;;;;;;;5034104;28;19932;-72
2023/06/08 10:19:06;;;;;;;;;;;;;;;;;;5033217;28;20324;-70
2023/06/08 10:21:33;;;;;;;;;;;;;;;;;;5032015;28;19925;-73
2023/06/08 10:24:00;;;;;;;;;;;;;;;;;;5042838;28;19925;-73
2023/06/08 10:26:27;;;;;;;;;;;;;;;;;;5022280;28;19929;-74
2023/06/08 10:28:54;;;;;;;;;;;;;;;;;;5048445;28;19931;-73
2023/06/08 10:31:21;;;;;;;;;;;;;;;;;;5034464;28;20384;-73
2023/06/08 10:33:48;;;;;;;;;;;;;;;;;;5029502;28;19937;-72
2023/06/08 10:36:15;;;;;;;;;;;;;;;;;;5034783;28;20024;-72
2023/06/08 10:38:42;;;;;;;;;;;;;;;;;;5033330;28;20086;-72
2023/06/08 10:41:09;;;;;;;;;;;;;;;;;;5032414;28;19925;-72
2023/06/08 10:43:36;;;;;;;;;;;;;;;;;;5046736;28;19967;-71
2023/06/08 10:46:03;;;;;;;;;;;;;;;;;;5033294;28;19925;-75
2023/06/08 10:48:30;;;;;;;;;;;;;;;;;;5033849;28;19933;-74
2023/06/08 10:50:57;;;;;;;;;;;;;;;;;;5032855;28;20299;-74
2023/06/08 10:53:24;;;;;;;;;;;;;;;;;;5046258;28;19970;-73
2023/06/08 10:55:51;;;;;;;;;;;;;;;;;;5036781;28;19925;-75
2023/06/08 10:58:19;;;;;;;;;;;;;;;;;;5025315;28;19931;-75
2023/06/08 11:00:46;;;;;;;;;;;;;;;;;;5037298;28;20008;-75
2023/06/08 11:03:13;;;;;;;;;;;;;;;;;;5045191;28;19925;-75
2023/06/08 11:05:41;;;;;;;;;;;;;;;;;;5033921;28;20020;-75
2023/06/08 11:08:08;;;;;;;;;;;;;;;;;;5034407;28;20019;-75
2023/06/08 11:10:36;;;;;;;;;;;;;;;;;;5031585;28;20004;-75
2023/06/08 11:13:04;;;;;;;;;;;;;;;;;;5043016;28;19924;-72
2023/06/08 11:15:31;;;;;;;;;;;;;;;;;;5027637;28;19969;-75
2023/06/08 11:17:58;;;;;;;;;;;;;;;;;;5018733;28;19925;-75
2023/06/08 11:20:25;;;;;;;;;;;;;;;;;;5041004;28;19931;-73
2023/06/08 11:22:52;;;;;;;;;;;;;;;;;;5034419;28;19925;-75
2023/06/08 11:25:19;;;;;;;;;;;;;;;;;;5032635;28;19979;-73
2023/06/08 11:27:46;;;;;;;;;;;;;;;;;;5039025;28;19932;-74
2023/06/08 11:30:13;;;;;;;;;;;;;;;;;;5032224;28;20020;-74
2023/06/08 11:32:40;;;;;;;;;;;;;;;;;;5032692;28;20015;-73
2023/06/08 11:35:08;;;;;;;;;;;;;;;;;;5033802;28;19971;-73
2023/06/08 11:37:36;;;;;;;;;;;;;;;;;;5033949;28;19925;-71
2023/06/08 11:40:04;;;;;;;;;;;;;;;;;;5033958;28;19931;-75
2023/06/08 11:42:31;;;;;;;;;;;;;;;;;;5038730;28;19936;-74
2023/06/08 11:44:58;;;;;;;;;;;;;;;;;;5045066;28;20002;-74
2023/06/08 11:47:25;;;;;;;;;;;;;;;;;;5032794;28;20296;-74
2023/06/08 11:49:52;;;;;;;;;;;;;;;;;;5028684;28;19935;-73
2023/06/08 11:52:20;;;;;;;;;;;;;;;;;;5037453;28;19924;-74
2023/06/08 11:54:46;;;;;;;;;;;;;;;;;;5035852;28;20331;-73
2023/06/08 11:57:13;;;;;;;;;;;;;;;;;;5026277;28;20011;-73
2023/06/08 11:59:40;;;;;;;;;;;;;;;;;;5030911;28;20015;-72
2023/06/08 12:02:09;;;;;;;;;;;;;;;;;;5033848;28;19972;-73
2023/06/08 12:04:36;;;;;;;;;;;;;;;;;;5039433;28;19925;-73
2023/06/08 12:07:03;;;;;;;;;;;;;;;;;;5023247;28;19953;-72
2023/06/08 12:09:30;;;;;;;;;;;;;;;;;;5030959;28;19931;-72
2023/06/08 12:11:57;;;;;;;;;;;;;;;;;;5029847;28;20036;-73
2023/06/08 12:14:24;;;;;;;;;;;;;;;;;;5031877;28;19955;-74
2023/06/08 12:16:51;;;;;;;;;;;;;;;;;;5030196;28;20365;-73
2023/06/08 12:19:18;;;;;;;;;;;;;;;;;;5031759;28;20348;-72
2023/06/08 12:21:45;;;;;;;;;;;;;;;;;;5032372;28;19960;-72
2023/06/08 12:24:12;;;;;;;;;;;;;;;;;;5028647;28;19925;-72
2023/06/08 12:26:39;;;;;;;;;;;;;;;;;;5029317;28;19929;-71
2023/06/08 12:29:07;;;;;;;;;;;;;;;;;;5030739;28;19932;-72
2023/06/08 12:31:34;;;;;;;;;;;;;;;;;;5029744;28;19925;-73
2023/06/08 12:34:02;;;;;;;;;;;;;;;;;;5038437;28;20020;-73
2023/06/08 12:36:29;;;;;;;;;;;;;;;;;;5032542;28;19940;-73
2023/06/08 12:38:57;;;;;;;;;;;;;;;;;;5032003;28;19929;-73
2023/06/08 12:41:24;;;;;;;;;;;;;;;;;;5029612;28;19933;-74
2023/06/08 12:43:51;;;;;;;;;;;;;;;;;;5042473;28;20004;-72
2023/06/08 12:46:19;;;;;;;;;;;;;;;;;;5030846;28;19925;-71
2023/06/08 12:48:47;;;;;;;;;;;;;;;;;;5027101;28;19963;-71
2023/06/08 12:51:14;;;;;;;;;;;;;;;;;;5032284;28;20431;-72
2023/06/08 12:53:41;;;;;;;;;;;;;;;;;;5030824;28;20472;-72
2023/06/08 12:56:08;;;;;;;;;;;;;;;;;;5030069;28;20346;-72
2023/06/08 12:58:35;;;;;;;;;;;;;;;;;;5034428;28;20372;-73
2023/06/08 13:01:02;;;;;;;;;;;;;;;;;;5031453;28;20083;-77
2023/06/08 13:03:29;;;;;;;;;;;;;;;;;;5032129;28;20555;-74
2023/06/08 13:05:56;;;;;;;;;;;;;;;;;;5028314;28;20030;-74
2023/06/08 13:08:23;;;;;;;;;;;;;;;;;;5018705;28;20008;-74
2023/06/08 13:10:50;;;;;;;;;;;;;;;;;;5028314;28;20039;-74
2023/06/08 13:13:17;;;;;;;;;;;;;;;;;;5032220;28;19972;-75
2023/06/08 13:15:47;;;;;;;;;;;;;;;;;;5021966;28;20314;-77
2023/06/08 13:18:14;;;;;;;;;;;;;;;;;;5029223;28;19968;-75
2023/06/08 13:20:45;;;;;;;;;;;;;;;;;;5029368;28;19932;-73
2023/06/08 13:23:12;;;;;;;;;;;;;;;;;;5028111;28;19964;-72
2023/06/08 13:25:39;;;;;;;;;;;;;;;;;;5045211;28;20015;-76
2023/06/08 13:28:07;;;;;;;;;;;;;;;;;;5031235;28;19934;-76
2023/06/08 13:30:34;;;;;;;;;;;;;;;;;;5030932;28;19925;-74
2023/06/08 13:33:01;;;;;;;;;;;;;;;;;;5028952;28;19925;-72
2023/06/08 13:35:28;;;;;;;;;;;;;;;;;;5036569;28;20099;-73
2023/06/08 13:37:55;;;;;;;;;;;;;;;;;;5034875;28;19925;-72
2023/06/08 13:40:23;;;;;;;;;;;;;;;;;;5031839;28;19925;-72
2023/06/08 13:42:50;;;;;;;;;;;;;;;;;;5040348;28;20325;-74
2023/06/08 13:45:18;;;;;;;;;;;;;;;;;;5031157;28;19924;-71
2023/06/08 13:47:45;;;;;;;;;;;;;;;;;;5024526;28;20351;-74
2023/06/08 13:50:12;;;;;;;;;;;;;;;;;;5020595;28;19988;-74
2023/06/08 13:52:39;;;;;;;;;;;;;;;;;;5027944;28;20020;-74
2023/06/08 13:55:06;;;;;;;;;;;;;;;;;;5021929;28;20384;-75
2023/06/08 13:57:33;;;;;;;;;;;;;;;;;;5051407;28;19932;-74
2023/06/08 14:00:00;;;;;;;;;;;;;;;;;;5028832;28;20479;-76
2023/06/08 14:02:27;;;;;;;;;;;;;;;;;;5042962;28;20387;-74
2023/06/08 14:04:54;;;;;;;;;;;;;;;;;;5037438;28;20015;-75
2023/06/08 14:07:21;;;;;;;;;;;;;;;;;;5018357;28;19931;-76
2023/06/08 14:09:48;;;;;;;;;;;;;;;;;;5026902;28;19926;-75
2023/06/08 14:12:15;;;;;;;;;;;;;;;;;;5028794;28;20016;-75
2023/06/08 14:14:43;;;;;;;;;;;;;;;;;;5041975;28;20002;-75
2023/06/08 14:17:10;;;;;;;;;;;;;;;;;;5032879;28;19929;-75
2023/06/08 14:19:37;;;;;;;;;;;;;;;;;;5038922;28;20015;-77
2023/06/08 14:22:04;;;;;;;;;;;;;;;;;;5039064;28;20391;-76
2023/06/08 14:24:31;;;;;;;;;;;;;;;;;;5024976;28;19934;-74
2023/06/08 14:26:58;;;;;;;;;;;;;;;;;;5017478;28;20420;-76
2023/06/08 14:29:25;;;;;;;;;;;;;;;;;;5037272;28;19971;-75
2023/06/08 14:31:53;;;;;;;;;;;;;;;;;;5029538;28;20293;-75
2023/06/08 14:34:20;;;;;;;;;;;;;;;;;;5019752;28;20257;-79
2023/06/08 14:36:47;;;;;;;;;;;;;;;;;;5024367;28;19930;-73
2023/06/08 14:39:14;;;;;;;;;;;;;;;;;;5028903;28;19958;-81
2023/06/08 14:41:41;;;;;;;;;;;;;;;;;;5030324;28;19929;-76
2023/06/08 14:44:08;;;;;;;;;;;;;;;;;;5030659;28;19929;-76
2023/06/08 14:46:36;;;;;;;;;;;;;;;;;;5034370;28;19931;-76
2023/06/08 14:49:03;;;;;;;;;;;;;;;;;;5033132;28;20289;-76
2023/06/08 14:51:30;;;;;;;;;;;;;;;;;;5034903;28;19983;-76
2023/06/08 14:53:57;;;;;;;;;;;;;;;;;;5034223;28;19929;-77
2023/06/08 14:56:25;;;;;;;;;;;;;;;;;;5031986;28;19931;-76
2023/06/08 14:58:52;;;;;;;;;;;;;;;;;;5033946;28;19930;-79
2023/06/08 15:01:19;;;;;;;;;;;;;;;;;;5037306;28;19925;-79
2023/06/08 15:03:46;;;;;;;;;;;;;;;;;;5031815;28;19967;-82
2023/06/08 15:06:13;;;;;;;;;;;;;;;;;;5041896;28;20012;-78
2023/06/08 15:08:40;;;;;;;;;;;;;;;;;;5031692;28;19925;-79
2023/06/08 15:11:07;;;;;;;;;;;;;;;;;;5029472;28;20466;-76
2023/06/08 15:13:34;;;;;;;;;;;;;;;;;;5030989;28;19965;-73
2023/06/08 15:16:01;;;;;;;;;;;;;;;;;;5030448;28;19932;-77
2023/06/08 15:18:28;;;;;;;;;;;;;;;;;;5032125;28;20016;-78
2023/06/08 15:20:55;;;;;;;;;;;;;;;;;;5026948;28;19935;-78
2023/06/08 15:23:22;;;;;;;;;;;;;;;;;;5043177;28;20007;-81
2023/06/08 15:25:49;;;;;;;;;;;;;;;;;;5039581;28;20373;-82
2023/06/08 15:28:16;;;;;;;;;;;;;;;;;;5032015;28;19973;-79
2023/06/08 15:30:43;;;;;;;;;;;;;;;;;;5028499;28;19961;-74
2023/06/08 15:33:10;;;;;;;;;;;;;;;;;;5033524;28;19925;-74
2023/06/08 15:35:37;;;;;;;;;;;;;;;;;;5031713;28;20399;-75
2023/06/08 15:38:04;;;;;;;;;;;;;;;;;;5031872;28;19943;-75
2023/06/08 15:40:31;;;;;;;;;;;;;;;;;;5031870;28;20012;-74
2023/06/08 15:42:58;;;;;;;;;;;;;;;;;;5041357;28;21142;-77
2023/06/08 15:45:25;;;;;;;;;;;;;;;;;;5027908;28;20025;-76
2023/06/08 15:47:52;;;;;;;;;;;;;;;;;;5029080;28;20019;-79
2023/06/08 15:50:19;;;;;;;;;;;;;;;;;;5042810;28;20025;-77
2023/06/08 15:52:46;;;;;;;;;;;;;;;;;;5035231;28;20012;-80
2023/06/08 15:55:13;;;;;;;;;;;;;;;;;;5037795;28;19925;-77
2023/06/08 15:57:40;;;;;;;;;;;;;;;;;;5038357;28;20007;-77
2023/06/08 16:00:08;;;;;;;;;;;;;;;;;;5031655;28;20015;-79
2023/06/08 16:02:35;;;;;;;;;;;;;;;;;;5032701;28;20479;-78
2023/06/08 16:05:03;;;;;;;;;;;;;;;;;;5024455;28;19924;-75
2023/06/08 16:07:30;;;;;;;;;;;;;;;;;;5034971;28;19928;-75
2023/06/08 16:09:59;;;;;;;;;;;;;;;;;;5033573;28;19929;-77
2023/06/08 16:12:26;;;;;;;;;;;;;;;;;;5031458;28;20376;-78
2023/06/08 16:14:55;;;;;;;;;;;;;;;;;;5035172;28;20410;-84
2023/06/08 16:17:22;;;;;;;;;;;;;;;;;;5033274;28;19933;-78
2023/06/08 16:19:49;;;;;;;;;;;;;;;;;;5032236;28;19925;-77
2023/06/08 16:22:16;;;;;;;;;;;;;;;;;;5033530;28;20016;-79
2023/06/08 16:24:43;;;;;;;;;;;;;;;;;;5026710;28;19929;-79
2023/06/08 16:27:10;;;;;;;;;;;;;;;;;;5028091;28;19968;-78
2023/06/08 16:29:37;;;;;;;;;;;;;;;;;;5032129;28;20338;-77
2023/06/08 16:32:04;;;;;;;;;;;;;;;;;;5031552;28;19930;-77
2023/06/08 16:34:31;;;;;;;;;;;;;;;;;;5025536;28;19979;-77
2023/06/08 16:36:58;;;;;;;;;;;;;;;;;;5027290;28;19925;-78
2023/06/08 16:39:25;;;;;;;;;;;;;;;;;;5029963;28;20444;-79
2023/06/08 16:41:52;;;;;;;;;;;;;;;;;;5025200;28;19926;-78
2023/06/08 16:44:19;;;;;;;;;;;;;;;;;;5033864;28;20096;-77
2023/06/08 16:46:46;;;;;;;;;;;;;;;;;;5028138;28;19925;-78